CYLW/YLW METAR and TAF weather

Enter ICAO airport designator
Station Type Date Time Source
CYLW METAR 2019/12/13 14:09 UTC NOAA

CYLW 131409Z AUTO 18003KT 9SM BKN011 OVC065 01/01 A3000 RMK SLP176


Station Type Date Time Source
CYLW Decoded METAR 2019/12/13 14:09 UTC NOAA

Kelowna Airport, Canada (CYLW) 49-58N 119-23W 430M
Dec 13, 2019 - 09:09 AM EST / 2019.12.13 1409 UTC
Wind: from the S (180 degrees) at 3 MPH (3 KT):0
Visibility: 9 mile(s):0
Sky conditions: overcast
Temperature: 33 F (1 C)
Dew Point: 33 F (1 C)
Relative Humidity: 100%
Pressure (altimeter): 30 in. Hg (1015 hPa)
ob: CYLW 131409Z AUTO 18003KT 9SM BKN011 OVC065 01/01 A3000 RMK SLP176
cycle: 14

Station Type Date Time Source
CYLW TAF 2019/12/13 13:39 UTC NOAA

TAF CYLW 131238Z 1313/1401 14006KT P6SM SCT015 BKN050
TEMPO 1313/1316 5SM -SHRASN BR BKN015
FM131600 14005KT P6SM SCT020 BKN100
TEMPO 1316/1321 BKN020
BECMG 1319/1321 35005KT
FM132100 35005KT P6SM BKN040
TEMPO 1321/1401 P6SM -SHRA
RMK FCST BASED ON AUTO OBS. NXT FCST BY 131900Z

Example: see airport list